Terminal Aerodrome Forecast
Issued by NWS

Home | Current Version | Previous Version | Text Only | Print | Product List | Glossary Off
Versions: 1 2 3 4 5 6 7 8 9 10 11 12 13 14 15 16 17 18 19

000
FTUS43 KABR 271234 AAA
TAFMBG
TAF AMD
KMBG 271234Z 2713/2812 05010KT 5SM RA BR SCT009 OVC015
     FM271700 04018G26KT 5SM -SHRA OVC025
     FM280000 05014KT P6SM SHRA OVC035
     FM280300 04013KT P6SM SHRASN OVC030=

USA.gov is the U.S. government's official web portal to all federal, state and local government web resources and services.